Ora Direzione Vento Velocita' Vento Media Vento Raffica Max. Temperatura Wind Chill Pioggia Pressione
15:11:34.0257 °(WSW)11.3 Kts11.8 Kts14.2 Kts24.0 °C11.3 °C0.0 mm1023.5 Hpa
14:50:42.0307 °(NW)11.8 Kts11.7 Kts13.2 Kts23.7 °C11.8 °C0.0 mm1023.7 Hpa
14:30:56.0265 °(W)12.2 Kts10.8 Kts13.2 Kts23.4 °C12.2 °C0.0 mm1023.9 Hpa
14:10:24.0297 °(WNW)11.2 Kts10.7 Kts12.7 Kts22.7 °C11.2 °C0.0 mm1024.1 Hpa
13:50:46.0256 °(WSW)10.4 Kts9.7 Kts12.2 Kts22.5 °C10.4 °C0.0 mm1024.3 Hpa
13:31:23.0288 °(WNW)10.8 Kts9.2 Kts12.1 Kts21.9 °C10.8 °C0.0 mm1024.4 Hpa
13:10:57.0306 °(NW)9.2 Kts10.0 Kts11.0 Kts21.3 °C9.2 °C0.0 mm1024.7 Hpa
12:50:32.0257 °(WSW)10.6 Kts9.5 Kts10.7 Kts20.7 °C10.6 °C0.0 mm1024.9 Hpa
12:31:08.0235 °(SW)9.8 Kts9.5 Kts10.7 Kts19.9 °C9.8 °C0.0 mm1025.1 Hpa
12:11:27.0226 °(SW)6.7 Kts7.7 Kts8.4 Kts20.5 °C6.7 °C0.0 mm1025.2 Hpa
11:51:05.0254 °(WSW)5.8 Kts6.2 Kts7.4 Kts21.1 °C5.8 °C0.0 mm1025.4 Hpa
11:30:44.0224 °(SW)5.0 Kts5.1 Kts7.4 Kts20.7 °C5.0 °C0.0 mm1025.5 Hpa
11:11:27.0261 °(W)4.8 Kts5.4 Kts6.5 Kts20.5 °C4.8 °C0.0 mm1025.6 Hpa
10:51:15.0237 °(WSW)5.3 Kts5.1 Kts5.5 Kts20.4 °C5.3 °C0.0 mm1025.5 Hpa
10:30:51.0280 °(W)3.7 Kts3.6 Kts5.2 Kts20.7 °C3.7 °C0.0 mm1025.5 Hpa
10:10:38.0258 °(WSW)2.9 Kts3.4 Kts4.7 Kts19.9 °C2.9 °C0.0 mm1025.4 Hpa
09:51:23.0205 °(SSW)2.2 Kts2.3 Kts4.2 Kts19.9 °C2.2 °C0.0 mm1025.4 Hpa
09:31:05.0178 °(S)1.6 Kts1.1 Kts4.2 Kts18.9 °C1.6 °C0.0 mm1025.4 Hpa
09:10:45.0173 °(S)1.6 Kts1.4 Kts4.2 Kts17.0 °C1.6 °C0.0 mm1025.3 Hpa
08:50:26.0198 °(SSW)0.0 Kts0.0 Kts4.2 Kts14.8 °C0.0 °C0.0 mm1025.2 Hpa